sensor_id;sensor_type;location;lat;lon;timestamp;pressure;altitude;pressure_sealevel;temperature
18161;BMP280;9205;52.032;4.314;2022-11-20T00:00:52;101418.84;;;3.29
18161;BMP280;9205;52.032;4.314;2022-11-20T00:03:19;101418.03;;;3.32
18161;BMP280;9205;52.032;4.314;2022-11-20T00:05:47;101407.81;;;3.20
18161;BMP280;9205;52.032;4.314;2022-11-20T00:08:14;101404.47;;;3.21
18161;BMP280;9205;52.032;4.314;2022-11-20T00:10:41;101404.59;;;3.28
18161;BMP280;9205;52.032;4.314;2022-11-20T00:13:08;101411.34;;;3.31
18161;BMP280;9205;52.032;4.314;2022-11-20T00:15:37;101413.00;;;3.30
18161;BMP280;9205;52.032;4.314;2022-11-20T00:18:04;101408.00;;;3.32
18161;BMP280;9205;52.032;4.314;2022-11-20T00:20:31;101408.06;;;3.35
18161;BMP280;9205;52.032;4.314;2022-11-20T00:22:58;101416.47;;;3.37
18161;BMP280;9205;52.032;4.314;2022-11-20T00:25:26;101409.69;;;3.33
18161;BMP280;9205;52.032;4.314;2022-11-20T00:27:53;101397.09;;;3.30
18161;BMP280;9205;52.032;4.314;2022-11-20T00:30:20;101391.19;;;3.28
18161;BMP280;9205;52.032;4.314;2022-11-20T00:32:48;101387.78;;;3.23
18161;BMP280;9205;52.032;4.314;2022-11-20T00:35:16;101391.06;;;3.20
18161;BMP280;9205;52.032;4.314;2022-11-20T00:37:43;101381.78;;;3.16
18161;BMP280;9205;52.032;4.314;2022-11-20T00:40:11;101378.41;;;3.14
18161;BMP280;9205;52.032;4.314;2022-11-20T00:42:40;101387.66;;;3.17
18161;BMP280;9205;52.032;4.314;2022-11-20T00:45:07;101390.22;;;3.18
18161;BMP280;9205;52.032;4.314;2022-11-20T00:47:35;101397.81;;;3.23
18161;BMP280;9205;52.032;4.314;2022-11-20T00:50:04;101386.00;;;3.19
18161;BMP280;9205;52.032;4.314;2022-11-20T00:52:32;101390.97;;;3.14
18161;BMP280;9205;52.032;4.314;2022-11-20T00:54:59;101393.38;;;3.08
18161;BMP280;9205;52.032;4.314;2022-11-20T00:57:26;101400.09;;;3.09
18161;BMP280;9205;52.032;4.314;2022-11-20T00:59:53;101398.56;;;3.19
18161;BMP280;9205;52.032;4.314;2022-11-20T01:02:21;101390.22;;;3.20
18161;BMP280;9205;52.032;4.314;2022-11-20T01:04:48;101375.16;;;3.18
18161;BMP280;9205;52.032;4.314;2022-11-20T01:07:17;101374.25;;;3.15
18161;BMP280;9205;52.032;4.314;2022-11-20T01:09:44;101371.59;;;3.08
18161;BMP280;9205;52.032;4.314;2022-11-20T01:12:11;101370.59;;;2.98
18161;BMP280;9205;52.032;4.314;2022-11-20T01:14:38;101379.69;;;2.92
18161;BMP280;9205;52.032;4.314;2022-11-20T01:17:08;101383.22;;;3.03
18161;BMP280;9205;52.032;4.314;2022-11-20T01:19:38;101385.75;;;3.04
18161;BMP280;9205;52.032;4.314;2022-11-20T01:22:05;101394.09;;;3.03
18161;BMP280;9205;52.032;4.314;2022-11-20T01:24:34;101394.09;;;3.03
18161;BMP280;9205;52.032;4.314;2022-11-20T01:27:01;101387.53;;;3.09
18161;BMP280;9205;52.032;4.314;2022-11-20T01:29:28;101393.44;;;3.11
18161;BMP280;9205;52.032;4.314;2022-11-20T01:31:55;101384.06;;;3.03
18161;BMP280;9205;52.032;4.314;2022-11-20T01:34:23;101383.09;;;2.95
18161;BMP280;9205;52.032;4.314;2022-11-20T01:36:51;101379.75;;;2.95
18161;BMP280;9205;52.032;4.314;2022-11-20T01:39:21;101371.41;;;2.96
18161;BMP280;9205;52.032;4.314;2022-11-20T01:41:52;101378.94;;;2.97
18161;BMP280;9205;52.032;4.314;2022-11-20T01:44:56;101371.41;;;2.96
18161;BMP280;9205;52.032;4.314;2022-11-20T01:47:32;101369.81;;;3.01
18161;BMP280;9205;52.032;4.314;2022-11-20T01:50:13;101376.34;;;2.91
18161;BMP280;9205;52.032;4.314;2022-11-20T01:52:49;101376.28;;;2.90
18161;BMP280;9205;52.032;4.314;2022-11-20T01:55:22;101371.97;;;2.81
18161;BMP280;9205;52.032;4.314;2022-11-20T01:57:53;101372.94;;;2.89
18161;BMP280;9205;52.032;4.314;2022-11-20T02:00:21;101359.66;;;2.95
18161;BMP280;9205;52.032;4.314;2022-11-20T02:02:53;101366.41;;;2.99
18161;BMP280;9205;52.032;4.314;2022-11-20T02:05:28;101374.75;;;2.96
18161;BMP280;9205;52.032;4.314;2022-11-20T02:07:57;101380.56;;;2.95
18161;BMP280;9205;52.032;4.314;2022-11-20T02:10:28;101377.13;;;2.89
18161;BMP280;9205;52.032;4.314;2022-11-20T02:12:57;101379.50;;;2.81
18161;BMP280;9205;52.032;4.314;2022-11-20T02:15:43;101367.81;;;2.83
18161;BMP280;9205;52.032;4.314;2022-11-20T02:18:13;101366.94;;;2.81
18161;BMP280;9205;52.032;4.314;2022-11-20T02:20:44;101362.00;;;2.84
18161;BMP280;9205;52.032;4.314;2022-11-20T02:23:18;101361.03;;;2.78
18161;BMP280;9205;52.032;4.314;2022-11-20T02:25:50;101365.94;;;2.72
18161;BMP280;9205;52.032;4.314;2022-11-20T02:28:18;101352.69;;;2.79
18161;BMP280;9205;52.032;4.314;2022-11-20T02:30:45;101346.78;;;2.77
18161;BMP280;9205;52.032;4.314;2022-11-20T02:33:13;101351.06;;;2.82
18161;BMP280;9205;52.032;4.314;2022-11-20T02:35:43;101337.72;;;2.85
18161;BMP280;9205;52.032;4.314;2022-11-20T02:38:11;101336.91;;;2.84
18161;BMP280;9205;52.032;4.314;2022-11-20T02:40:39;101344.41;;;2.84
18161;BMP280;9205;52.032;4.314;2022-11-20T02:43:09;101339.34;;;2.83
18161;BMP280;9205;52.032;4.314;2022-11-20T02:45:39;101340.22;;;2.83
18161;BMP280;9205;52.032;4.314;2022-11-20T02:48:06;101338.53;;;2.82
18161;BMP280;9205;52.032;4.314;2022-11-20T02:50:38;101331.88;;;2.84
18161;BMP280;9205;52.032;4.314;2022-11-20T02:53:06;101336.09;;;2.87
18161;BMP280;9205;52.032;4.314;2022-11-20T02:55:34;101331.09;;;2.90
18161;BMP280;9205;52.032;4.314;2022-11-20T02:58:02;101325.34;;;2.94
18161;BMP280;9205;52.032;4.314;2022-11-20T03:00:30;101315.28;;;2.92
18161;BMP280;9205;52.032;4.314;2022-11-20T03:02:58;101320.31;;;2.92
18161;BMP280;9205;52.032;4.314;2022-11-20T03:05:25;101320.34;;;2.95
18161;BMP280;9205;52.032;4.314;2022-11-20T03:07:52;101316.91;;;2.89
18161;BMP280;9205;52.032;4.314;2022-11-20T03:10:19;101324.34;;;2.84
18161;BMP280;9205;52.032;4.314;2022-11-20T03:12:46;101314.22;;;2.80
18161;BMP280;9205;52.032;4.314;2022-11-20T03:15:13;101310.84;;;2.79
18161;BMP280;9205;52.032;4.314;2022-11-20T03:17:42;101304.22;;;2.83
18161;BMP280;9205;52.032;4.314;2022-11-20T03:20:11;101305.88;;;2.81
18161;BMP280;9205;52.032;4.314;2022-11-20T03:22:38;101305.75;;;2.75
18161;BMP280;9205;52.032;4.314;2022-11-20T03:25:06;101302.41;;;2.74
18161;BMP280;9205;52.032;4.314;2022-11-20T03:27:34;101305.81;;;2.78
18161;BMP280;9205;52.032;4.314;2022-11-20T03:30:02;101306.63;;;2.75
18161;BMP280;9205;52.032;4.314;2022-11-20T03:32:29;101303.16;;;2.69
18161;BMP280;9205;52.032;4.314;2022-11-20T03:34:57;101300.53;;;2.61
18161;BMP280;9205;52.032;4.314;2022-11-20T03:37:25;101303.06;;;2.64
18161;BMP280;9205;52.032;4.314;2022-11-20T03:39:52;101302.16;;;2.59
18161;BMP280;9205;52.032;4.314;2022-11-20T03:42:19;101299.63;;;2.59
18161;BMP280;9205;52.032;4.314;2022-11-20T03:45:05;101293.13;;;2.70
18161;BMP280;9205;52.032;4.314;2022-11-20T03:47:32;101273.03;;;2.67
18161;BMP280;9205;52.032;4.314;2022-11-20T03:50:01;101275.53;;;2.69
18161;BMP280;9205;52.032;4.314;2022-11-20T03:52:28;101269.78;;;2.73
18161;BMP280;9205;52.032;4.314;2022-11-20T03:54:55;101260.56;;;2.73
18161;BMP280;9205;52.032;4.314;2022-11-20T03:57:22;101261.38;;;2.72
18161;BMP280;9205;52.032;4.314;2022-11-20T03:59:49;101258.06;;;2.73
18161;BMP280;9205;52.032;4.314;2022-11-20T04:02:16;101249.78;;;2.77
18161;BMP280;9205;52.032;4.314;2022-11-20T04:04:44;101252.28;;;2.77
18161;BMP280;9205;52.032;4.314;2022-11-20T04:07:12;101247.22;;;2.74
18161;BMP280;9205;52.032;4.314;2022-11-20T04:09:39;101241.28;;;2.69
18161;BMP280;9205;52.032;4.314;2022-11-20T04:12:06;101226.97;;;2.65
18161;BMP280;9205;52.032;4.314;2022-11-20T04:14:34;101221.88;;;2.59
18161;BMP280;9205;52.032;4.314;2022-11-20T04:17:01;101235.22;;;2.58
18161;BMP280;9205;52.032;4.314;2022-11-20T04:19:28;101228.53;;;2.59
18161;BMP280;9205;52.032;4.314;2022-11-20T04:21:55;101228.44;;;2.53
18161;BMP280;9205;52.032;4.314;2022-11-20T04:24:24;101235.84;;;2.45
18161;BMP280;9205;52.032;4.314;2022-11-20T04:26:51;101240.00;;;2.43
18161;BMP280;9205;52.032;4.314;2022-11-20T04:29:18;101242.47;;;2.42
18161;BMP280;9205;52.032;4.314;2022-11-20T04:31:45;101249.13;;;2.41
18161;BMP280;9205;52.032;4.314;2022-11-20T04:34:13;101255.03;;;2.43
18161;BMP280;9205;52.032;4.314;2022-11-20T04:36:40;101244.13;;;2.41
18161;BMP280;9205;52.032;4.314;2022-11-20T04:39:13;101241.72;;;2.47
18161;BMP280;9205;52.032;4.314;2022-11-20T04:41:42;101249.13;;;2.40
18161;BMP280;9205;52.032;4.314;2022-11-20T04:44:10;101248.25;;;2.38
18161;BMP280;9205;52.032;4.314;2022-11-20T04:46:41;101237.47;;;2.43
18161;BMP280;9205;52.032;4.314;2022-11-20T04:49:10;101239.19;;;2.44
18161;BMP280;9205;52.032;4.314;2022-11-20T04:51:38;101235.00;;;2.45
18161;BMP280;9205;52.032;4.314;2022-11-20T04:54:05;101240.81;;;2.42
18161;BMP280;9205;52.032;4.314;2022-11-20T04:56:32;101231.66;;;2.44
18161;BMP280;9205;52.032;4.314;2022-11-20T04:59:04;101225.81;;;2.45
18161;BMP280;9205;52.032;4.314;2022-11-20T05:01:31;101232.44;;;2.42
18161;BMP280;9205;52.032;4.314;2022-11-20T05:03:58;101239.13;;;2.43
18161;BMP280;9205;52.032;4.314;2022-11-20T05:06:26;101243.19;;;2.35
18161;BMP280;9205;52.032;4.314;2022-11-20T05:08:53;101245.66;;;2.33
18161;BMP280;9205;52.032;4.314;2022-11-20T05:11:21;101244.94;;;2.40
18161;BMP280;9205;52.032;4.314;2022-11-20T05:13:49;101247.50;;;2.43
18161;BMP280;9205;52.032;4.314;2022-11-20T05:16:19;101233.25;;;2.41
18161;BMP280;9205;52.032;4.314;2022-11-20T05:18:47;101240.81;;;2.42
18161;BMP280;9205;52.032;4.314;2022-11-20T05:21:16;101237.47;;;2.43
18161;BMP280;9205;52.032;4.314;2022-11-20T05:23:45;101245.66;;;2.33
18161;BMP280;9205;52.032;4.314;2022-11-20T05:26:16;101244.66;;;2.26
18161;BMP280;9205;52.032;4.314;2022-11-20T05:28:44;101247.94;;;2.22
18161;BMP280;9205;52.032;4.314;2022-11-20T05:31:13;101245.53;;;2.26
18161;BMP280;9205;52.032;4.314;2022-11-20T05:33:44;101233.13;;;2.33
18161;BMP280;9205;52.032;4.314;2022-11-20T05:36:14;101216.50;;;2.38
18161;BMP280;9205;52.032;4.314;2022-11-20T05:38:42;101218.28;;;2.45
18161;BMP280;9205;52.032;4.314;2022-11-20T05:41:12;101208.38;;;2.53
18161;BMP280;9205;52.032;4.314;2022-11-20T05:43:41;101207.56;;;2.54
18161;BMP280;9205;52.032;4.314;2022-11-20T05:46:11;101204.22;;;2.53
18161;BMP280;9205;52.032;4.314;2022-11-20T05:48:41;101205.03;;;2.52
18161;BMP280;9205;52.032;4.314;2022-11-20T05:51:12;101199.22;;;2.55
18161;BMP280;9205;52.032;4.314;2022-11-20T05:53:40;101199.28;;;2.59
18161;BMP280;9205;52.032;4.314;2022-11-20T05:56:12;101190.97;;;2.62
18161;BMP280;9205;52.032;4.314;2022-11-20T05:58:40;101192.75;;;2.67
18161;BMP280;9205;52.032;4.314;2022-11-20T06:01:11;101185.88;;;2.57
18161;BMP280;9205;52.032;4.314;2022-11-20T06:03:41;101188.34;;;2.54
18161;BMP280;9205;52.032;4.314;2022-11-20T06:06:12;101179.00;;;2.46
18161;BMP280;9205;52.032;4.314;2022-11-20T06:08:40;101183.28;;;2.53
18161;BMP280;9205;52.032;4.314;2022-11-20T06:11:09;101179.97;;;2.54
18161;BMP280;9205;52.032;4.314;2022-11-20T06:13:37;101179.91;;;2.51
18161;BMP280;9205;52.032;4.314;2022-11-20T06:16:05;101175.00;;;2.57
18161;BMP280;9205;52.032;4.314;2022-11-20T06:18:32;101168.31;;;2.56
18161;BMP280;9205;52.032;4.314;2022-11-20T06:21:03;101173.31;;;2.54
18161;BMP280;9205;52.032;4.314;2022-11-20T06:23:32;101166.63;;;2.55
18161;BMP280;9205;52.032;4.314;2022-11-20T06:26:02;101165.00;;;2.60
18161;BMP280;9205;52.032;4.314;2022-11-20T06:28:30;101169.22;;;2.61
18161;BMP280;9205;52.032;4.314;2022-11-20T06:30:57;101169.28;;;2.64
18161;BMP280;9205;52.032;4.314;2022-11-20T06:33:25;101163.38;;;2.62
18161;BMP280;9205;52.032;4.314;2022-11-20T06:35:56;101169.22;;;2.62
18161;BMP280;9205;52.032;4.314;2022-11-20T06:38:24;101169.22;;;2.62
18161;BMP280;9205;52.032;4.314;2022-11-20T06:40:52;101171.69;;;2.59
18161;BMP280;9205;52.032;4.314;2022-11-20T06:43:20;101170.03;;;2.60
18161;BMP280;9205;52.032;4.314;2022-11-20T06:45:52;101162.56;;;2.61
18161;BMP280;9205;52.032;4.314;2022-11-20T06:48:20;101167.56;;;2.61
18161;BMP280;9205;52.032;4.314;2022-11-20T06:50:47;101170.97;;;2.66
18161;BMP280;9205;52.032;4.314;2022-11-20T06:53:14;101176.00;;;2.66
18161;BMP280;9205;52.032;4.314;2022-11-20T06:55:44;101175.13;;;2.64
18161;BMP280;9205;52.032;4.314;2022-11-20T06:58:11;101165.16;;;2.69
18161;BMP280;9205;52.032;4.314;2022-11-20T07:00:38;101163.50;;;2.69
18161;BMP280;9205;52.032;4.314;2022-11-20T07:03:07;101150.16;;;2.73
18161;BMP280;9205;52.032;4.314;2022-11-20T07:05:35;101161.09;;;2.78
18161;BMP280;9205;52.032;4.314;2022-11-20T07:08:03;101163.53;;;2.72
18161;BMP280;9205;52.032;4.314;2022-11-20T07:10:30;101158.44;;;2.66
18161;BMP280;9205;52.032;4.314;2022-11-20T07:12:59;101148.53;;;2.75
18161;BMP280;9205;52.032;4.314;2022-11-20T07:15:26;101157.84;;;2.82
18161;BMP280;9205;52.032;4.314;2022-11-20T07:17:53;101136.81;;;2.76
18161;BMP280;9205;52.032;4.314;2022-11-20T07:20:21;101147.69;;;2.75
18161;BMP280;9205;52.032;4.314;2022-11-20T07:22:53;101154.38;;;2.76
18161;BMP280;9205;52.032;4.314;2022-11-20T07:25:22;101151.91;;;2.77
18161;BMP280;9205;52.032;4.314;2022-11-20T07:27:49;101161.22;;;2.84
18161;BMP280;9205;52.032;4.314;2022-11-20T07:30:18;101145.31;;;2.84
18161;BMP280;9205;52.032;4.314;2022-11-20T07:32:46;101153.72;;;2.87
18161;BMP280;9205;52.032;4.314;2022-11-20T07:35:14;101153.75;;;2.89
18161;BMP280;9205;52.032;4.314;2022-11-20T07:37:41;101153.78;;;2.92
18161;BMP280;9205;52.032;4.314;2022-11-20T07:40:11;101152.22;;;3.00
18161;BMP280;9205;52.032;4.314;2022-11-20T07:42:38;101157.25;;;3.00
18161;BMP280;9205;52.032;4.314;2022-11-20T07:45:06;101154.75;;;3.00
18161;BMP280;9205;52.032;4.314;2022-11-20T07:47:36;101158.16;;;3.05
18161;BMP280;9205;52.032;4.314;2022-11-20T07:50:05;101161.53;;;3.07
18161;BMP280;9205;52.032;4.314;2022-11-20T07:52:33;101159.97;;;3.14
18161;BMP280;9205;52.032;4.314;2022-11-20T07:55:00;101144.97;;;3.17
18161;BMP280;9205;52.032;4.314;2022-11-20T07:57:29;101144.03;;;3.12
18161;BMP280;9205;52.032;4.314;2022-11-20T07:59:56;101144.94;;;3.16
18161;BMP280;9205;52.032;4.314;2022-11-20T08:02:23;101139.19;;;3.23
18161;BMP280;9205;52.032;4.314;2022-11-20T08:04:52;101135.00;;;3.25
18161;BMP280;9205;52.032;4.314;2022-11-20T08:07:20;101132.53;;;3.29
18161;BMP280;9205;52.032;4.314;2022-11-20T08:09:47;101145.13;;;3.31
18161;BMP280;9205;52.032;4.314;2022-11-20T08:12:19;101135.09;;;3.31
18161;BMP280;9205;52.032;4.314;2022-11-20T08:15:06;101133.41;;;3.30
18161;BMP280;9205;52.032;4.314;2022-11-20T08:17:33;101136.75;;;3.30
18161;BMP280;9205;52.032;4.314;2022-11-20T08:20:02;101141.88;;;3.39
18161;BMP280;9205;52.032;4.314;2022-11-20T08:22:30;101140.31;;;3.46
18161;BMP280;9205;52.032;4.314;2022-11-20T08:24:57;101135.28;;;3.49
18161;BMP280;9205;52.032;4.314;2022-11-20T08:27:24;101131.94;;;3.48
18161;BMP280;9205;52.032;4.314;2022-11-20T08:29:52;101126.16;;;3.55
18161;BMP280;9205;52.032;4.314;2022-11-20T08:32:19;101122.06;;;3.62
18161;BMP280;9205;52.032;4.314;2022-11-20T08:34:46;101132.94;;;3.62
18161;BMP280;9205;52.032;4.314;2022-11-20T08:37:15;101122.94;;;3.67
18161;BMP280;9205;52.032;4.314;2022-11-20T08:39:42;101126.38;;;3.76
18161;BMP280;9205;52.032;4.314;2022-11-20T08:42:09;101125.53;;;3.73
18161;BMP280;9205;52.032;4.314;2022-11-20T08:44:36;101127.25;;;3.80
18161;BMP280;9205;52.032;4.314;2022-11-20T08:47:04;101123.16;;;3.85
18161;BMP280;9205;52.032;4.314;2022-11-20T08:49:31;101124.84;;;3.87
18161;BMP280;9205;52.032;4.314;2022-11-20T08:51:58;101125.72;;;3.92
18161;BMP280;9205;52.032;4.314;2022-11-20T08:54:27;101111.50;;;3.92
18161;BMP280;9205;52.032;4.314;2022-11-20T08:56:54;101109.81;;;3.91
18161;BMP280;9205;52.032;4.314;2022-11-20T08:59:21;101124.03;;;3.88
18161;BMP280;9205;52.032;4.314;2022-11-20T09:01:48;101118.22;;;3.98
18161;BMP280;9205;52.032;4.314;2022-11-20T09:04:16;101119.97;;;4.03
18161;BMP280;9205;52.032;4.314;2022-11-20T09:06:43;101116.63;;;4.04
18161;BMP280;9205;52.032;4.314;2022-11-20T09:09:10;101107.44;;;4.06
18161;BMP280;9205;52.032;4.314;2022-11-20T09:11:39;101109.94;;;4.08
18161;BMP280;9205;52.032;4.314;2022-11-20T09:14:06;101107.47;;;4.11
18161;BMP280;9205;52.032;4.314;2022-11-20T09:16:34;101094.94;;;4.17
18161;BMP280;9205;52.032;4.314;2022-11-20T09:19:01;101079.03;;;4.19
18161;BMP280;9205;52.032;4.314;2022-11-20T09:21:28;101082.41;;;4.21
18161;BMP280;9205;52.032;4.314;2022-11-20T09:23:55;101075.69;;;4.22
18161;BMP280;9205;52.032;4.314;2022-11-20T09:26:22;101072.34;;;4.20
18161;BMP280;9205;52.032;4.314;2022-11-20T09:28:51;101069.84;;;4.21
18161;BMP280;9205;52.032;4.314;2022-11-20T09:31:23;101066.50;;;4.25
18161;BMP280;9205;52.032;4.314;2022-11-20T09:33:51;101058.16;;;4.28
18161;BMP280;9205;52.032;4.314;2022-11-20T09:36:19;101055.66;;;4.29
18161;BMP280;9205;52.032;4.314;2022-11-20T09:38:47;101053.13;;;4.31
18161;BMP280;9205;52.032;4.314;2022-11-20T09:41:38;101051.53;;;4.43
18161;BMP280;9205;52.032;4.314;2022-11-20T09:44:26;101041.53;;;4.48
18161;BMP280;9205;52.032;4.314;2022-11-20T09:47:08;101040.69;;;4.50
18161;BMP280;9205;52.032;4.314;2022-11-20T09:49:54;101030.59;;;4.47
18161;BMP280;9205;52.032;4.314;2022-11-20T09:52:40;101018.88;;;4.49
18161;BMP280;9205;52.032;4.314;2022-11-20T09:55:11;101016.41;;;4.57
18161;BMP280;9205;52.032;4.314;2022-11-20T09:57:44;101020.59;;;4.55
18161;BMP280;9205;52.032;4.314;2022-11-20T10:00:16;101004.66;;;4.54
18161;BMP280;9205;52.032;4.314;2022-11-20T10:02:48;101007.22;;;4.60
18161;BMP280;9205;52.032;4.314;2022-11-20T10:05:25;100992.94;;;4.61
18161;BMP280;9205;52.032;4.314;2022-11-20T10:08:07;100988.75;;;4.61
18161;BMP280;9205;52.032;4.314;2022-11-20T10:10:44;100977.88;;;4.69
18161;BMP280;9205;52.032;4.314;2022-11-20T10:13:27;100973.69;;;4.68
18161;BMP280;9205;52.032;4.314;2022-11-20T10:16:14;100966.16;;;4.71
18161;BMP280;9205;52.032;4.314;2022-11-20T10:19:04;100961.97;;;4.73
18161;BMP280;9205;52.032;4.314;2022-11-20T10:21:52;100956.09;;;4.70
18161;BMP280;9205;52.032;4.314;2022-11-20T10:24:44;100956.91;;;4.66
18161;BMP280;9205;52.032;4.314;2022-11-20T10:27:42;100954.38;;;4.66
18161;BMP280;9205;52.032;4.314;2022-11-20T10:30:15;100948.50;;;4.64
18161;BMP280;9205;52.032;4.314;2022-11-20T10:32:49;100942.63;;;4.66
18161;BMP280;9205;52.032;4.314;2022-11-20T10:35:23;100941.81;;;4.64
18161;BMP280;9205;52.032;4.314;2022-11-20T10:37:58;100941.81;;;4.66
18161;BMP280;9205;52.032;4.314;2022-11-20T10:40:34;100926.72;;;4.72
18161;BMP280;9205;52.032;4.314;2022-11-20T10:43:15;100930.13;;;4.84
18161;BMP280;9205;52.032;4.314;2022-11-20T10:45:50;100919.25;;;4.88
18161;BMP280;9205;52.032;4.314;2022-11-20T10:48:24;100915.03;;;4.89
18161;BMP280;9205;52.032;4.314;2022-11-20T10:51:07;100920.91;;;4.94
18161;BMP280;9205;52.032;4.314;2022-11-20T10:53:58;100905.84;;;5.00
18161;BMP280;9205;52.032;4.314;2022-11-20T10:56:39;100898.28;;;5.10
18161;BMP280;9205;52.032;4.314;2022-11-20T10:59:40;100899.13;;;5.09
18161;BMP280;9205;52.032;4.314;2022-11-20T11:02:18;100889.91;;;5.13
18161;BMP280;9205;52.032;4.314;2022-11-20T11:04:49;100883.19;;;5.15
18161;BMP280;9205;52.032;4.314;2022-11-20T11:07:22;100873.13;;;5.24
18161;BMP280;9205;52.032;4.314;2022-11-20T11:09:54;100863.03;;;5.31
18161;BMP280;9205;52.032;4.314;2022-11-20T11:12:24;100852.13;;;5.29
18161;BMP280;9205;52.032;4.314;2022-11-20T11:14:54;100851.28;;;5.35
18161;BMP280;9205;52.032;4.314;2022-11-20T11:17:26;100849.59;;;5.38
18161;BMP280;9205;52.032;4.314;2022-11-20T11:20:14;100841.22;;;5.43
18161;BMP280;9205;52.032;4.314;2022-11-20T11:22:45;100844.56;;;5.48
18161;BMP280;9205;52.032;4.314;2022-11-20T11:25:28;100825.22;;;5.47
18161;BMP280;9205;52.032;4.314;2022-11-20T11:27:59;100800.91;;;5.43
18161;BMP280;9205;52.032;4.314;2022-11-20T11:30:29;100800.06;;;5.49
18161;BMP280;9205;52.032;4.314;2022-11-20T11:33:06;100787.44;;;5.52
18161;BMP280;9205;52.032;4.314;2022-11-20T11:35:46;100772.34;;;5.49
18161;BMP280;9205;52.032;4.314;2022-11-20T11:38:18;100763.06;;;5.58
18161;BMP280;9205;52.032;4.314;2022-11-20T11:40:47;100761.38;;;5.59
18161;BMP280;9205;52.032;4.314;2022-11-20T11:43:21;100758.03;;;5.58
18161;BMP280;9205;52.032;4.314;2022-11-20T11:46:27;100765.59;;;5.55
18161;BMP280;9205;52.032;4.314;2022-11-20T11:48:58;100758.88;;;5.48
18161;BMP280;9205;52.032;4.314;2022-11-20T11:51:36;100753.84;;;5.48
18161;BMP280;9205;52.032;4.314;2022-11-20T11:54:15;100750.50;;;5.46
18161;BMP280;9205;52.032;4.314;2022-11-20T11:56:43;100757.19;;;5.52
18161;BMP280;9205;52.032;4.314;2022-11-20T11:59:18;100758.88;;;5.65
18161;BMP280;9205;52.032;4.314;2022-11-20T12:01:56;100763.91;;;5.60
18161;BMP280;9205;52.032;4.314;2022-11-20T12:04:42;100755.50;;;5.66
18161;BMP280;9205;52.032;4.314;2022-11-20T12:07:32;100744.56;;;5.70
18161;BMP280;9205;52.032;4.314;2022-11-20T12:10:03;100733.63;;;5.78
18161;BMP280;9205;52.032;4.314;2022-11-20T12:12:37;100727.72;;;5.75
18161;BMP280;9205;52.032;4.314;2022-11-20T12:15:13;100735.31;;;5.79
18161;BMP280;9205;52.032;4.314;2022-11-20T12:17:42;100726.06;;;5.75
18161;BMP280;9205;52.032;4.314;2022-11-20T12:20:20;100724.41;;;5.82
18161;BMP280;9205;52.032;4.314;2022-11-20T12:22:57;100717.59;;;5.90
18161;BMP280;9205;52.032;4.314;2022-11-20T12:25:30;100712.63;;;5.82
18161;BMP280;9205;52.032;4.314;2022-11-20T12:28:31;100699.97;;;5.91
18161;BMP280;9205;52.032;4.314;2022-11-20T12:31:22;100704.97;;;5.97
18161;BMP280;9205;52.032;4.314;2022-11-20T12:34:24;100699.94;;;5.97
18161;BMP280;9205;52.032;4.314;2022-11-20T12:37:02;100681.41;;;6.03
18161;BMP280;9205;52.032;4.314;2022-11-20T12:39:41;100669.63;;;6.03
18161;BMP280;9205;52.032;4.314;2022-11-20T12:42:27;100667.91;;;6.11
18161;BMP280;9205;52.032;4.314;2022-11-20T12:45:35;100667.94;;;6.08
18161;BMP280;9205;52.032;4.314;2022-11-20T12:48:42;100668.75;;;6.10
18161;BMP280;9205;52.032;4.314;2022-11-20T12:51:34;100671.28;;;6.10
18161;BMP280;9205;52.032;4.314;2022-11-20T12:54:28;100652.75;;;6.19
18161;BMP280;9205;52.032;4.314;2022-11-20T12:57:06;100647.69;;;6.19
18161;BMP280;9205;52.032;4.314;2022-11-20T13:00:02;100640.94;;;6.19
18161;BMP280;9205;52.032;4.314;2022-11-20T13:02:47;100642.63;;;6.23
18161;BMP280;9205;52.032;4.314;2022-11-20T13:05:30;100636.75;;;6.20
18161;BMP280;9205;52.032;4.314;2022-11-20T13:08:01;100637.56;;;6.24
18161;BMP280;9205;52.032;4.314;2022-11-20T13:10:37;100628.31;;;6.22
18161;BMP280;9205;52.032;4.314;2022-11-20T13:13:16;100621.59;;;6.22
18161;BMP280;9205;52.032;4.314;2022-11-20T13:15:51;100628.31;;;6.20
18161;BMP280;9205;52.032;4.314;2022-11-20T13:18:22;100607.28;;;6.24
18161;BMP280;9205;52.032;4.314;2022-11-20T13:20:49;100613.16;;;6.26
18161;BMP280;9205;52.032;4.314;2022-11-20T13:23:25;100605.56;;;6.28
18161;BMP280;9205;52.032;4.314;2022-11-20T13:26:05;100605.56;;;6.29
18161;BMP280;9205;52.032;4.314;2022-11-20T13:28:35;100601.38;;;6.30
18161;BMP280;9205;52.032;4.314;2022-11-20T13:31:03;100594.66;;;6.26
18161;BMP280;9205;52.032;4.314;2022-11-20T13:33:32;100597.22;;;6.23
18161;BMP280;9205;52.032;4.314;2022-11-20T13:36:03;100588.84;;;6.20
18161;BMP280;9205;52.032;4.314;2022-11-20T13:38:43;100582.16;;;6.13
18161;BMP280;9205;52.032;4.314;2022-11-20T13:41:11;100583.00;;;6.10
18161;BMP280;9205;52.032;4.314;2022-11-20T13:44:09;100577.16;;;6.02
18161;BMP280;9205;52.032;4.314;2022-11-20T13:46:44;100575.53;;;6.01
18161;BMP280;9205;52.032;4.314;2022-11-20T13:49:26;100557.91;;;5.97
18161;BMP280;9205;52.032;4.314;2022-11-20T13:52:18;100551.19;;;5.90
18161;BMP280;9205;52.032;4.314;2022-11-20T13:55:13;100557.97;;;5.88
18161;BMP280;9205;52.032;4.314;2022-11-20T13:58:21;100527.66;;;5.91
18161;BMP280;9205;52.032;4.314;2022-11-20T14:01:01;100511.72;;;5.87
18161;BMP280;9205;52.032;4.314;2022-11-20T14:03:38;100513.47;;;5.82
18161;BMP280;9205;52.032;4.314;2022-11-20T14:06:13;100511.78;;;5.84
18161;BMP280;9205;52.032;4.314;2022-11-20T14:08:47;100496.63;;;5.86
18161;BMP280;9205;52.032;4.314;2022-11-20T14:11:18;100480.59;;;5.90
18161;BMP280;9205;52.032;4.314;2022-11-20T14:13:56;100482.28;;;5.91
18161;BMP280;9205;52.032;4.314;2022-11-20T14:16:28;100479.78;;;5.89
18161;BMP280;9205;52.032;4.314;2022-11-20T14:18:57;100483.16;;;5.88
18161;BMP280;9205;52.032;4.314;2022-11-20T14:21:28;100480.69;;;5.85
18161;BMP280;9205;52.032;4.314;2022-11-20T14:24:04;100471.44;;;5.84
18161;BMP280;9205;52.032;4.314;2022-11-20T14:26:32;100468.94;;;5.81
18161;BMP280;9205;52.032;4.314;2022-11-20T14:29:00;100457.16;;;5.83
18161;BMP280;9205;52.032;4.314;2022-11-20T14:31:29;100457.16;;;5.76
18161;BMP280;9205;52.032;4.314;2022-11-20T14:33:56;100448.78;;;5.75
18161;BMP280;9205;52.032;4.314;2022-11-20T14:36:25;100449.63;;;5.74
18161;BMP280;9205;52.032;4.314;2022-11-20T14:38:53;100445.44;;;5.78
18161;BMP280;9205;52.032;4.314;2022-11-20T14:41:23;100438.69;;;5.78
18161;BMP280;9205;52.032;4.314;2022-11-20T14:43:56;100446.28;;;5.72
18161;BMP280;9205;52.032;4.314;2022-11-20T14:46:25;100435.34;;;5.75
18161;BMP280;9205;52.032;4.314;2022-11-20T14:48:56;100431.09;;;5.84